Terminal Aerodrome Forecast
Issued by NWS Wilmington, OH

Home | Current Version | Previous Version | Text Only | Print | Product List | Glossary On
Versions: 1 2 3 4 5 6 7 8 9 10 11 12 13 14 15 16 17
000
FTUS41 KILN 210500
TAFDAY
TAF
KDAY 210534Z 2106/2206 00000KT 6SM BR BKN025
     FM210700 00000KT 5SM BR FEW025 SCT060
      TEMPO 2109/2113 2SM BR
     FM211400 12005KT P6SM FEW022 SCT250=

USA.gov is the U.S. government's official web portal to all federal, state and local government web resources and services.